sensor_id;sensor_type;location;lat;lon;timestamp;temperature;humidity
39017;DHT22;24784;45.582;5.276;2023-02-28T00:01:10;0.80;97.00
39017;DHT22;24784;45.582;5.276;2023-02-28T00:03:36;0.60;97.00
39017;DHT22;24784;45.582;5.276;2023-02-28T00:06:04;0.70;97.00
39017;DHT22;24784;45.582;5.276;2023-02-28T00:08:30;0.60;97.40
39017;DHT22;24784;45.582;5.276;2023-02-28T00:10:56;0.80;97.40
39017;DHT22;24784;45.582;5.276;2023-02-28T00:13:21;0.70;97.40
39017;DHT22;24784;45.582;5.276;2023-02-28T00:15:47;0.70;97.40
39017;DHT22;24784;45.582;5.276;2023-02-28T00:18:13;0.80;97.60
39017;DHT22;24784;45.582;5.276;2023-02-28T00:20:39;0.70;97.60
39017;DHT22;24784;45.582;5.276;2023-02-28T00:23:04;0.60;97.80
39017;DHT22;24784;45.582;5.276;2023-02-28T00:25:30;0.60;97.80
39017;DHT22;24784;45.582;5.276;2023-02-28T00:27:56;0.70;97.80
39017;DHT22;24784;45.582;5.276;2023-02-28T00:30:22;0.60;98.00
39017;DHT22;24784;45.582;5.276;2023-02-28T00:32:49;0.60;98.00
39017;DHT22;24784;45.582;5.276;2023-02-28T00:35:16;0.40;98.10
39017;DHT22;24784;45.582;5.276;2023-02-28T00:37:42;0.40;98.30
39017;DHT22;24784;45.582;5.276;2023-02-28T00:40:08;0.50;98.40
39017;DHT22;24784;45.582;5.276;2023-02-28T00:42:35;0.40;98.30
39017;DHT22;24784;45.582;5.276;2023-02-28T00:45:02;0.50;98.20
39017;DHT22;24784;45.582;5.276;2023-02-28T00:47:29;0.50;98.40
39017;DHT22;24784;45.582;5.276;2023-02-28T00:49:55;0.60;98.30
39017;DHT22;24784;45.582;5.276;2023-02-28T00:52:20;0.60;98.20
39017;DHT22;24784;45.582;5.276;2023-02-28T00:54:47;0.60;98.40
39017;DHT22;24784;45.582;5.276;2023-02-28T00:57:12;0.60;98.40
39017;DHT22;24784;45.582;5.276;2023-02-28T00:59:38;0.60;98.30
39017;DHT22;24784;45.582;5.276;2023-02-28T01:02:04;0.60;98.20
39017;DHT22;24784;45.582;5.276;2023-02-28T01:04:29;0.50;98.40
39017;DHT22;24784;45.582;5.276;2023-02-28T01:06:55;0.50;98.50
39017;DHT22;24784;45.582;5.276;2023-02-28T01:09:21;0.50;98.80
39017;DHT22;24784;45.582;5.276;2023-02-28T01:11:47;0.60;98.90
39017;DHT22;24784;45.582;5.276;2023-02-28T01:14:14;0.60;99.00
39017;DHT22;24784;45.582;5.276;2023-02-28T01:16:40;0.80;98.70
39017;DHT22;24784;45.582;5.276;2023-02-28T01:19:06;0.70;98.60
39017;DHT22;24784;45.582;5.276;2023-02-28T01:21:32;0.80;98.60
39017;DHT22;24784;45.582;5.276;2023-02-28T01:23:58;0.90;98.60
39017;DHT22;24784;45.582;5.276;2023-02-28T01:26:24;0.70;98.60
39017;DHT22;24784;45.582;5.276;2023-02-28T01:28:51;0.70;98.70
39017;DHT22;24784;45.582;5.276;2023-02-28T01:31:17;0.90;98.60
39017;DHT22;24784;45.582;5.276;2023-02-28T01:33:44;0.80;98.40
39017;DHT22;24784;45.582;5.276;2023-02-28T01:36:12;0.80;98.20
39017;DHT22;24784;45.582;5.276;2023-02-28T01:38:38;0.90;98.40
39017;DHT22;24784;45.582;5.276;2023-02-28T01:41:04;0.90;98.20
39017;DHT22;24784;45.582;5.276;2023-02-28T01:46:13;1.00;98.60
39017;DHT22;24784;45.582;5.276;2023-02-28T01:48:43;1.00;98.90
39017;DHT22;24784;45.582;5.276;2023-02-28T01:51:16;1.00;98.60
39017;DHT22;24784;45.582;5.276;2023-02-28T01:53:47;0.90;98.00
39017;DHT22;24784;45.582;5.276;2023-02-28T01:56:17;0.80;97.20
39017;DHT22;24784;45.582;5.276;2023-02-28T01:58:52;0.80;97.00
39017;DHT22;24784;45.582;5.276;2023-02-28T02:01:20;0.90;97.20
39017;DHT22;24784;45.582;5.276;2023-02-28T02:03:51;0.90;97.20
39017;DHT22;24784;45.582;5.276;2023-02-28T02:06:22;1.10;97.20
39017;DHT22;24784;45.582;5.276;2023-02-28T02:08:48;1.00;96.80
39017;DHT22;24784;45.582;5.276;2023-02-28T02:11:18;0.90;97.00
39017;DHT22;24784;45.582;5.276;2023-02-28T02:21:42;1.10;96.20
39017;DHT22;24784;45.582;5.276;2023-02-28T02:35:43;1.10;96.20
39017;DHT22;24784;45.582;5.276;2023-02-28T02:43:49;1.10;96.20
39017;DHT22;24784;45.582;5.276;2023-02-28T02:46:34;1.20;96.10
39017;DHT22;24784;45.582;5.276;2023-02-28T02:49:05;1.20;96.40
39017;DHT22;24784;45.582;5.276;2023-02-28T02:51:32;1.20;96.20
39017;DHT22;24784;45.582;5.276;2023-02-28T02:54:19;1.10;96.30
39017;DHT22;24784;45.582;5.276;2023-02-28T02:56:46;1.10;96.30
39017;DHT22;24784;45.582;5.276;2023-02-28T02:59:21;1.10;96.30
39017;DHT22;24784;45.582;5.276;2023-02-28T03:01:54;1.10;96.70
39017;DHT22;24784;45.582;5.276;2023-02-28T03:04:23;1.10;96.40
39017;DHT22;24784;45.582;5.276;2023-02-28T03:06:51;1.10;96.50
39017;DHT22;24784;45.582;5.276;2023-02-28T03:09:21;1.20;96.30
39017;DHT22;24784;45.582;5.276;2023-02-28T03:11:48;1.20;96.10
39017;DHT22;24784;45.582;5.276;2023-02-28T03:19:47;1.10;95.90
39017;DHT22;24784;45.582;5.276;2023-02-28T03:25:06;1.20;95.60
39017;DHT22;24784;45.582;5.276;2023-02-28T03:30:32;1.20;95.90
39017;DHT22;24784;45.582;5.276;2023-02-28T03:33:33;1.20;95.70
39017;DHT22;24784;45.582;5.276;2023-02-28T03:36:11;1.10;95.80
39017;DHT22;24784;45.582;5.276;2023-02-28T03:41:20;1.10;95.70
39017;DHT22;24784;45.582;5.276;2023-02-28T03:44:04;1.20;96.00
39017;DHT22;24784;45.582;5.276;2023-02-28T03:46:34;1.20;95.90
39017;DHT22;24784;45.582;5.276;2023-02-28T03:49:20;1.10;95.90
39017;DHT22;24784;45.582;5.276;2023-02-28T03:51:49;1.10;95.80
39017;DHT22;24784;45.582;5.276;2023-02-28T03:54:21;1.10;96.10
39017;DHT22;24784;45.582;5.276;2023-02-28T03:56:56;1.00;95.90
39017;DHT22;24784;45.582;5.276;2023-02-28T03:59:30;1.00;96.10
39017;DHT22;24784;45.582;5.276;2023-02-28T04:01:58;1.00;95.90
39017;DHT22;24784;45.582;5.276;2023-02-28T04:04:24;1.00;95.80
39017;DHT22;24784;45.582;5.276;2023-02-28T04:06:51;1.00;95.90
39017;DHT22;24784;45.582;5.276;2023-02-28T04:09:17;0.90;96.00
39017;DHT22;24784;45.582;5.276;2023-02-28T04:11:45;0.90;96.20
39017;DHT22;24784;45.582;5.276;2023-02-28T04:14:12;0.90;95.70
39017;DHT22;24784;45.582;5.276;2023-02-28T04:16:40;1.00;95.90
39017;DHT22;24784;45.582;5.276;2023-02-28T04:19:08;0.90;95.70
39017;DHT22;24784;45.582;5.276;2023-02-28T04:21:46;0.90;96.00
39017;DHT22;24784;45.582;5.276;2023-02-28T04:24:14;0.90;95.90
39017;DHT22;24784;45.582;5.276;2023-02-28T04:26:42;0.80;96.30
39017;DHT22;24784;45.582;5.276;2023-02-28T04:29:10;0.80;96.10
39017;DHT22;24784;45.582;5.276;2023-02-28T04:31:36;0.70;96.70
39017;DHT22;24784;45.582;5.276;2023-02-28T04:34:02;0.50;96.50
39017;DHT22;24784;45.582;5.276;2023-02-28T04:36:28;0.50;96.70
39017;DHT22;24784;45.582;5.276;2023-02-28T04:38:54;0.60;96.70
39017;DHT22;24784;45.582;5.276;2023-02-28T04:41:20;0.40;96.70
39017;DHT22;24784;45.582;5.276;2023-02-28T04:43:46;0.40;96.90
39017;DHT22;24784;45.582;5.276;2023-02-28T04:46:12;0.40;97.10
39017;DHT22;24784;45.582;5.276;2023-02-28T04:48:39;0.30;97.30
39017;DHT22;24784;45.582;5.276;2023-02-28T04:51:10;0.30;96.70
39017;DHT22;24784;45.582;5.276;2023-02-28T04:53:38;0.40;96.90
39017;DHT22;24784;45.582;5.276;2023-02-28T04:56:05;0.50;96.70
39017;DHT22;24784;45.582;5.276;2023-02-28T04:58:31;0.60;96.70
39017;DHT22;24784;45.582;5.276;2023-02-28T05:01:28;0.50;96.80
39017;DHT22;24784;45.582;5.276;2023-02-28T05:03:56;0.50;96.80
39017;DHT22;24784;45.582;5.276;2023-02-28T05:06:25;0.40;96.80
39017;DHT22;24784;45.582;5.276;2023-02-28T05:08:51;0.40;97.00
39017;DHT22;24784;45.582;5.276;2023-02-28T05:11:23;0.30;96.90
39017;DHT22;24784;45.582;5.276;2023-02-28T05:13:50;0.30;97.00
39017;DHT22;24784;45.582;5.276;2023-02-28T05:16:16;0.30;97.20
39017;DHT22;24784;45.582;5.276;2023-02-28T05:18:42;0.40;97.30
39017;DHT22;24784;45.582;5.276;2023-02-28T05:21:31;0.40;97.70
39017;DHT22;24784;45.582;5.276;2023-02-28T05:23:59;0.40;97.20
39017;DHT22;24784;45.582;5.276;2023-02-28T05:26:26;0.40;97.50
39017;DHT22;24784;45.582;5.276;2023-02-28T05:28:52;0.50;97.30
39017;DHT22;24784;45.582;5.276;2023-02-28T05:31:18;0.50;97.20
39017;DHT22;24784;45.582;5.276;2023-02-28T05:33:43;0.40;97.20
39017;DHT22;24784;45.582;5.276;2023-02-28T05:36:09;0.40;97.20
39017;DHT22;24784;45.582;5.276;2023-02-28T05:38:35;0.40;97.20
39017;DHT22;24784;45.582;5.276;2023-02-28T05:41:08;0.40;97.00
39017;DHT22;24784;45.582;5.276;2023-02-28T05:43:34;0.50;96.90
39017;DHT22;24784;45.582;5.276;2023-02-28T05:46:05;0.40;97.10
39017;DHT22;24784;45.582;5.276;2023-02-28T05:48:36;0.30;96.70
39017;DHT22;24784;45.582;5.276;2023-02-28T05:51:03;0.30;96.70
39017;DHT22;24784;45.582;5.276;2023-02-28T05:53:29;0.30;96.90
39017;DHT22;24784;45.582;5.276;2023-02-28T05:55:55;0.40;96.80
39017;DHT22;24784;45.582;5.276;2023-02-28T05:58:21;0.30;96.70
39017;DHT22;24784;45.582;5.276;2023-02-28T06:00:48;0.40;97.00
39017;DHT22;24784;45.582;5.276;2023-02-28T06:03:14;0.30;96.90
39017;DHT22;24784;45.582;5.276;2023-02-28T06:05:41;0.40;97.00
39017;DHT22;24784;45.582;5.276;2023-02-28T06:08:06;0.20;96.90
39017;DHT22;24784;45.582;5.276;2023-02-28T06:10:38;0.20;97.00
39017;DHT22;24784;45.582;5.276;2023-02-28T06:13:06;0.20;97.10
39017;DHT22;24784;45.582;5.276;2023-02-28T06:15:32;0.20;96.90
39017;DHT22;24784;45.582;5.276;2023-02-28T06:17:58;0.20;96.70
39017;DHT22;24784;45.582;5.276;2023-02-28T06:20:25;0.20;96.90
39017;DHT22;24784;45.582;5.276;2023-02-28T06:22:55;0.30;96.60
39017;DHT22;24784;45.582;5.276;2023-02-28T06:25:21;0.40;97.00
39017;DHT22;24784;45.582;5.276;2023-02-28T06:27:47;0.40;96.60
39017;DHT22;24784;45.582;5.276;2023-02-28T06:30:13;0.30;96.80
39017;DHT22;24784;45.582;5.276;2023-02-28T06:32:39;0.30;96.50
39017;DHT22;24784;45.582;5.276;2023-02-28T06:35:05;0.20;96.70
39017;DHT22;24784;45.582;5.276;2023-02-28T06:37:31;0.20;97.00
39017;DHT22;24784;45.582;5.276;2023-02-28T06:39:57;0.30;97.00
39017;DHT22;24784;45.582;5.276;2023-02-28T06:42:24;0.40;97.00
39017;DHT22;24784;45.582;5.276;2023-02-28T06:44:55;0.40;96.90
39017;DHT22;24784;45.582;5.276;2023-02-28T06:47:21;0.40;96.60
39017;DHT22;24784;45.582;5.276;2023-02-28T06:49:46;0.50;96.80
39017;DHT22;24784;45.582;5.276;2023-02-28T06:52:12;0.50;96.50
39017;DHT22;24784;45.582;5.276;2023-02-28T06:54:38;0.40;96.50
39017;DHT22;24784;45.582;5.276;2023-02-28T06:57:04;0.50;96.50
39017;DHT22;24784;45.582;5.276;2023-02-28T06:59:30;0.40;96.40
39017;DHT22;24784;45.582;5.276;2023-02-28T07:01:55;0.40;96.20
39017;DHT22;24784;45.582;5.276;2023-02-28T07:04:22;0.40;96.40
39017;DHT22;24784;45.582;5.276;2023-02-28T07:06:47;0.30;96.10
39017;DHT22;24784;45.582;5.276;2023-02-28T07:09:13;0.30;96.20
39017;DHT22;24784;45.582;5.276;2023-02-28T07:11:40;0.30;96.30
39017;DHT22;24784;45.582;5.276;2023-02-28T07:14:06;0.40;96.40
39017;DHT22;24784;45.582;5.276;2023-02-28T07:16:32;0.40;96.30
39017;DHT22;24784;45.582;5.276;2023-02-28T07:18:58;0.30;96.00
39017;DHT22;24784;45.582;5.276;2023-02-28T07:21:24;0.40;96.30
39017;DHT22;24784;45.582;5.276;2023-02-28T07:23:50;0.40;96.20
39017;DHT22;24784;45.582;5.276;2023-02-28T07:26:17;0.40;96.30
39017;DHT22;24784;45.582;5.276;2023-02-28T07:28:44;0.40;96.30
39017;DHT22;24784;45.582;5.276;2023-02-28T07:31:11;0.40;96.30
39017;DHT22;24784;45.582;5.276;2023-02-28T07:33:39;0.40;96.10
39017;DHT22;24784;45.582;5.276;2023-02-28T07:36:07;0.40;96.20
39017;DHT22;24784;45.582;5.276;2023-02-28T07:38:35;0.30;96.10
39017;DHT22;24784;45.582;5.276;2023-02-28T07:41:01;0.30;96.30
39017;DHT22;24784;45.582;5.276;2023-02-28T07:43:32;0.30;96.50
39017;DHT22;24784;45.582;5.276;2023-02-28T07:46:07;0.30;96.30
39017;DHT22;24784;45.582;5.276;2023-02-28T07:48:33;0.30;96.30
39017;DHT22;24784;45.582;5.276;2023-02-28T07:50:59;0.40;96.40
39017;DHT22;24784;45.582;5.276;2023-02-28T07:53:26;0.30;96.50
39017;DHT22;24784;45.582;5.276;2023-02-28T07:55:55;0.30;96.40
39017;DHT22;24784;45.582;5.276;2023-02-28T07:58:21;0.50;96.60
39017;DHT22;24784;45.582;5.276;2023-02-28T08:00:47;0.50;96.20
39017;DHT22;24784;45.582;5.276;2023-02-28T08:03:13;0.40;96.00
39017;DHT22;24784;45.582;5.276;2023-02-28T08:05:40;0.40;96.30
39017;DHT22;24784;45.582;5.276;2023-02-28T08:08:06;0.40;96.00
39017;DHT22;24784;45.582;5.276;2023-02-28T08:10:33;0.50;96.10
39017;DHT22;24784;45.582;5.276;2023-02-28T08:12:58;0.60;95.80
39017;DHT22;24784;45.582;5.276;2023-02-28T08:15:24;0.50;95.60
39017;DHT22;24784;45.582;5.276;2023-02-28T08:17:50;0.40;95.60
39017;DHT22;24784;45.582;5.276;2023-02-28T08:20:15;0.50;95.70
39017;DHT22;24784;45.582;5.276;2023-02-28T08:22:41;0.40;95.60
39017;DHT22;24784;45.582;5.276;2023-02-28T08:25:07;0.50;95.80
39017;DHT22;24784;45.582;5.276;2023-02-28T08:27:33;0.50;95.90
39017;DHT22;24784;45.582;5.276;2023-02-28T08:29:59;0.50;95.60
39017;DHT22;24784;45.582;5.276;2023-02-28T08:32:25;0.50;95.90
39017;DHT22;24784;45.582;5.276;2023-02-28T08:34:51;0.50;95.80
39017;DHT22;24784;45.582;5.276;2023-02-28T08:37:16;0.60;95.60
39017;DHT22;24784;45.582;5.276;2023-02-28T08:39:42;0.80;95.60
39017;DHT22;24784;45.582;5.276;2023-02-28T08:42:08;0.80;95.50
39017;DHT22;24784;45.582;5.276;2023-02-28T08:44:33;0.80;95.80
39017;DHT22;24784;45.582;5.276;2023-02-28T08:46:59;0.90;95.80
39017;DHT22;24784;45.582;5.276;2023-02-28T08:49:25;0.90;95.40
39017;DHT22;24784;45.582;5.276;2023-02-28T08:51:51;1.00;95.60
39017;DHT22;24784;45.582;5.276;2023-02-28T08:54:16;1.10;95.70
39017;DHT22;24784;45.582;5.276;2023-02-28T08:56:45;1.20;95.40
39017;DHT22;24784;45.582;5.276;2023-02-28T08:59:12;1.20;95.20
39017;DHT22;24784;45.582;5.276;2023-02-28T09:01:37;1.20;95.40
39017;DHT22;24784;45.582;5.276;2023-02-28T09:04:03;1.30;95.60
39017;DHT22;24784;45.582;5.276;2023-02-28T09:06:29;1.40;95.50
39017;DHT22;24784;45.582;5.276;2023-02-28T09:08:58;1.40;95.10
39017;DHT22;24784;45.582;5.276;2023-02-28T09:11:24;1.50;95.40
39017;DHT22;24784;45.582;5.276;2023-02-28T09:13:50;1.70;95.10
39017;DHT22;24784;45.582;5.276;2023-02-28T09:16:16;1.70;95.00
39017;DHT22;24784;45.582;5.276;2023-02-28T09:18:43;1.90;95.40
39017;DHT22;24784;45.582;5.276;2023-02-28T09:21:12;2.10;95.10
39017;DHT22;24784;45.582;5.276;2023-02-28T09:23:43;2.00;94.10
39017;DHT22;24784;45.582;5.276;2023-02-28T09:26:17;2.00;94.40
39017;DHT22;24784;45.582;5.276;2023-02-28T09:28:43;2.10;94.80
39017;DHT22;24784;45.582;5.276;2023-02-28T09:31:14;2.40;94.70
39017;DHT22;24784;45.582;5.276;2023-02-28T09:33:40;2.50;94.00
39017;DHT22;24784;45.582;5.276;2023-02-28T09:36:06;2.70;94.60
39017;DHT22;24784;45.582;5.276;2023-02-28T09:38:32;2.70;93.80
39017;DHT22;24784;45.582;5.276;2023-02-28T09:41:01;2.90;94.10
39017;DHT22;24784;45.582;5.276;2023-02-28T09:43:38;2.90;94.40
39017;DHT22;24784;45.582;5.276;2023-02-28T09:46:28;3.10;93.70
39017;DHT22;24784;45.582;5.276;2023-02-28T09:48:55;3.00;93.40
39017;DHT22;24784;45.582;5.276;2023-02-28T09:54:22;3.50;93.50
39017;DHT22;24784;45.582;5.276;2023-02-28T10:06:06;4.30;92.90
39017;DHT22;24784;45.582;5.276;2023-02-28T10:08:37;4.30;92.20
39017;DHT22;24784;45.582;5.276;2023-02-28T10:11:09;4.20;92.60
39017;DHT22;24784;45.582;5.276;2023-02-28T10:13:49;4.50;92.10
39017;DHT22;24784;45.582;5.276;2023-02-28T10:16:22;4.60;91.50
39017;DHT22;24784;45.582;5.276;2023-02-28T10:18:54;4.60;91.20
39017;DHT22;24784;45.582;5.276;2023-02-28T10:21:37;4.70;91.80
39017;DHT22;24784;45.582;5.276;2023-02-28T10:27:01;4.90;91.40
39017;DHT22;24784;45.582;5.276;2023-02-28T10:29:32;4.90;90.90
39017;DHT22;24784;45.582;5.276;2023-02-28T10:32:01;4.70;90.50
39017;DHT22;24784;45.582;5.276;2023-02-28T10:34:28;4.70;91.30
39017;DHT22;24784;45.582;5.276;2023-02-28T10:36:54;4.90;91.10
39017;DHT22;24784;45.582;5.276;2023-02-28T10:42:05;5.50;90.20
39017;DHT22;24784;45.582;5.276;2023-02-28T10:44:43;5.10;90.70
39017;DHT22;24784;45.582;5.276;2023-02-28T10:47:15;5.00;90.80
39017;DHT22;24784;45.582;5.276;2023-02-28T10:49:47;5.10;90.50
39017;DHT22;24784;45.582;5.276;2023-02-28T10:52:40;5.00;90.50
39017;DHT22;24784;45.582;5.276;2023-02-28T10:55:18;5.00;91.10
39017;DHT22;24784;45.582;5.276;2023-02-28T10:57:46;5.20;90.60
39017;DHT22;24784;45.582;5.276;2023-02-28T11:00:21;5.30;90.60
39017;DHT22;24784;45.582;5.276;2023-02-28T11:02:48;5.00;90.40
39017;DHT22;24784;45.582;5.276;2023-02-28T11:05:32;5.40;90.50
39017;DHT22;24784;45.582;5.276;2023-02-28T11:08:15;5.10;90.30
39017;DHT22;24784;45.582;5.276;2023-02-28T11:10:53;5.40;90.50
39017;DHT22;24784;45.582;5.276;2023-02-28T11:13:21;5.50;89.60
39017;DHT22;24784;45.582;5.276;2023-02-28T11:15:59;6.00;90.40
39017;DHT22;24784;45.582;5.276;2023-02-28T11:18:50;6.00;89.20
39017;DHT22;24784;45.582;5.276;2023-02-28T11:21:51;6.30;89.30
39017;DHT22;24784;45.582;5.276;2023-02-28T11:24:28;6.70;88.40
39017;DHT22;24784;45.582;5.276;2023-02-28T11:26:56;6.80;88.60
39017;DHT22;24784;45.582;5.276;2023-02-28T11:29:28;6.40;87.40
39017;DHT22;24784;45.582;5.276;2023-02-28T11:32:03;6.40;88.40
39017;DHT22;24784;45.582;5.276;2023-02-28T11:34:29;6.30;86.30
39017;DHT22;24784;45.582;5.276;2023-02-28T11:36:57;6.20;88.40
39017;DHT22;24784;45.582;5.276;2023-02-28T11:39:25;6.30;87.60
39017;DHT22;24784;45.582;5.276;2023-02-28T11:45:02;5.70;88.70
39017;DHT22;24784;45.582;5.276;2023-02-28T11:50:41;5.50;89.40
39017;DHT22;24784;45.582;5.276;2023-02-28T11:53:19;5.60;90.00
39017;DHT22;24784;45.582;5.276;2023-02-28T11:55:52;6.00;90.00
39017;DHT22;24784;45.582;5.276;2023-02-28T12:01:08;5.80;88.10
39017;DHT22;24784;45.582;5.276;2023-02-28T12:06:47;5.50;88.80
39017;DHT22;24784;45.582;5.276;2023-02-28T12:12:38;5.70;90.00
39017;DHT22;24784;45.582;5.276;2023-02-28T12:18:16;6.00;89.00
39017;DHT22;24784;45.582;5.276;2023-02-28T12:21:18;6.00;88.80
39017;DHT22;24784;45.582;5.276;2023-02-28T12:26:39;6.00;87.80
39017;DHT22;24784;45.582;5.276;2023-02-28T12:34:27;5.30;89.70
39017;DHT22;24784;45.582;5.276;2023-02-28T12:36:55;5.50;89.50
39017;DHT22;24784;45.582;5.276;2023-02-28T12:39:28;5.50;89.30
39017;DHT22;24784;45.582;5.276;2023-02-28T12:42:03;5.60;89.40
39017;DHT22;24784;45.582;5.276;2023-02-28T12:44:44;5.80;89.90
39017;DHT22;24784;45.582;5.276;2023-02-28T12:47:17;5.70;88.10
39017;DHT22;24784;45.582;5.276;2023-02-28T12:49:49;5.60;89.20
39017;DHT22;24784;45.582;5.276;2023-02-28T12:52:19;5.60;89.10
39017;DHT22;24784;45.582;5.276;2023-02-28T12:54:56;5.50;89.60
39017;DHT22;24784;45.582;5.276;2023-02-28T12:57:39;5.30;90.20
39017;DHT22;24784;45.582;5.276;2023-02-28T13:00:16;5.30;89.50
39017;DHT22;24784;45.582;5.276;2023-02-28T13:10:59;5.40;89.80
39017;DHT22;24784;45.582;5.276;2023-02-28T13:13:28;5.40;90.00
39017;DHT22;24784;45.582;5.276;2023-02-28T13:16:04;5.40;90.00
39017;DHT22;24784;45.582;5.276;2023-02-28T13:21:27;5.00;90.40
39017;DHT22;24784;45.582;5.276;2023-02-28T13:34:35;5.50;88.10
39017;DHT22;24784;45.582;5.276;2023-02-28T13:37:35;5.60;90.20
39017;DHT22;24784;45.582;5.276;2023-02-28T13:40:27;5.80;89.30
39017;DHT22;24784;45.582;5.276;2023-02-28T13:42:53;5.90;90.00
39017;DHT22;24784;45.582;5.276;2023-02-28T13:45:25;6.00;90.00
39017;DHT22;24784;45.582;5.276;2023-02-28T13:47:59;5.70;88.80
39017;DHT22;24784;45.582;5.276;2023-02-28T13:55:31;6.20;90.00
39017;DHT22;24784;45.582;5.276;2023-02-28T14:03:58;5.70;89.60
39017;DHT22;24784;45.582;5.276;2023-02-28T14:06:37;6.00;90.00
39017;DHT22;24784;45.582;5.276;2023-02-28T14:17:54;6.30;88.80
39017;DHT22;24784;45.582;5.276;2023-02-28T14:20:22;6.20;89.00
39017;DHT22;24784;45.582;5.276;2023-02-28T14:23:06;6.30;88.30
39017;DHT22;24784;45.582;5.276;2023-02-28T14:31:00;6.10;88.60
39017;DHT22;24784;45.582;5.276;2023-02-28T14:38:33;6.10;88.70
39017;DHT22;24784;45.582;5.276;2023-02-28T14:41:04;6.00;89.10
39017;DHT22;24784;45.582;5.276;2023-02-28T14:43:32;6.40;90.10
39017;DHT22;24784;45.582;5.276;2023-02-28T14:46:00;6.40;88.70
39017;DHT22;24784;45.582;5.276;2023-02-28T14:48:27;6.40;88.80
39017;DHT22;24784;45.582;5.276;2023-02-28T14:50:58;6.30;88.70
39017;DHT22;24784;45.582;5.276;2023-02-28T14:53:27;6.10;88.40
39017;DHT22;24784;45.582;5.276;2023-02-28T14:55:54;5.90;88.80
39017;DHT22;24784;45.582;5.276;2023-02-28T15:00:51;5.70;90.00
39017;DHT22;24784;45.582;5.276;2023-02-28T15:03:36;5.60;89.60
39017;DHT22;24784;45.582;5.276;2023-02-28T15:06:13;5.60;90.10
39017;DHT22;24784;45.582;5.276;2023-02-28T15:08:40;5.50;90.10
39017;DHT22;24784;45.582;5.276;2023-02-28T15:11:14;5.40;89.90
39017;DHT22;24784;45.582;5.276;2023-02-28T15:13:43;5.50;90.50
39017;DHT22;24784;45.582;5.276;2023-02-28T15:16:19;5.50;90.70
39017;DHT22;24784;45.582;5.276;2023-02-28T15:18:54;5.60;90.70
39017;DHT22;24784;45.582;5.276;2023-02-28T15:21:25;5.60;90.50
39017;DHT22;24784;45.582;5.276;2023-02-28T15:23:55;5.50;90.00
39017;DHT22;24784;45.582;5.276;2023-02-28T15:26:25;5.50;90.70
39017;DHT22;24784;45.582;5.276;2023-02-28T15:29:04;5.50;90.70
39017;DHT22;24784;45.582;5.276;2023-02-28T15:31:43;5.40;90.60
39017;DHT22;24784;45.582;5.276;2023-02-28T15:34:22;5.30;90.60
39017;DHT22;24784;45.582;5.276;2023-02-28T15:36:48;5.30;90.90
39017;DHT22;24784;45.582;5.276;2023-02-28T15:39:23;5.30;90.70
39017;DHT22;24784;45.582;5.276;2023-02-28T15:41:49;5.10;90.50
39017;DHT22;24784;45.582;5.276;2023-02-28T15:44:27;5.30;90.90
39017;DHT22;24784;45.582;5.276;2023-02-28T15:47:06;5.20;90.50
39017;DHT22;24784;45.582;5.276;2023-02-28T15:50:00;5.10;90.80
39017;DHT22;24784;45.582;5.276;2023-02-28T15:54:54;5.10;91.30
39017;DHT22;24784;45.582;5.276;2023-02-28T15:57:25;5.10;91.00
39017;DHT22;24784;45.582;5.276;2023-02-28T15:59:55;5.10;90.80
39017;DHT22;24784;45.582;5.276;2023-02-28T16:02:30;5.00;91.00
39017;DHT22;24784;45.582;5.276;2023-02-28T16:07:28;5.00;91.20
39017;DHT22;24784;45.582;5.276;2023-02-28T16:09:54;5.00;91.60
39017;DHT22;24784;45.582;5.276;2023-02-28T16:12:25;5.00;91.50
39017;DHT22;24784;45.582;5.276;2023-02-28T16:14:53;5.00;91.40
39017;DHT22;24784;45.582;5.276;2023-02-28T16:17:27;4.80;91.20
39017;DHT22;24784;45.582;5.276;2023-02-28T16:19:54;4.60;91.40
39017;DHT22;24784;45.582;5.276;2023-02-28T16:22:20;4.60;91.20
39017;DHT22;24784;45.582;5.276;2023-02-28T16:24:46;4.60;91.60
39017;DHT22;24784;45.582;5.276;2023-02-28T16:27:25;4.60;91.40
39017;DHT22;24784;45.582;5.276;2023-02-28T16:29:53;4.70;91.90
39017;DHT22;24784;45.582;5.276;2023-02-28T16:32:19;4.70;91.60
39017;DHT22;24784;45.582;5.276;2023-02-28T16:34:45;4.50;91.80
39017;DHT22;24784;45.582;5.276;2023-02-28T16:37:15;4.50;91.60
39017;DHT22;24784;45.582;5.276;2023-02-28T16:39:42;4.40;91.90
39017;DHT22;24784;45.582;5.276;2023-02-28T16:42:16;4.40;91.90
39017;DHT22;24784;45.582;5.276;2023-02-28T16:44:43;4.40;91.90
39017;DHT22;24784;45.582;5.276;2023-02-28T16:47:10;4.30;91.90
39017;DHT22;24784;45.582;5.276;2023-02-28T16:49:36;4.50;92.10
39017;DHT22;24784;45.582;5.276;2023-02-28T16:52:02;4.40;92.00
39017;DHT22;24784;45.582;5.276;2023-02-28T16:54:28;4.30;92.30
39017;DHT22;24784;45.582;5.276;2023-02-28T16:56:54;4.40;92.20
39017;DHT22;24784;45.582;5.276;2023-02-28T16:59:23;4.30;92.20
39017;DHT22;24784;45.582;5.276;2023-02-28T17:01:50;4.30;92.30
39017;DHT22;24784;45.582;5.276;2023-02-28T17:04:16;4.30;92.30
39017;DHT22;24784;45.582;5.276;2023-02-28T17:06:41;4.30;92.60
39017;DHT22;24784;45.582;5.276;2023-02-28T17:09:21;4.10;92.60
39017;DHT22;24784;45.582;5.276;2023-02-28T17:11:48;4.10;92.80
39017;DHT22;24784;45.582;5.276;2023-02-28T17:14:14;4.00;92.80
39017;DHT22;24784;45.582;5.276;2023-02-28T17:16:40;4.00;92.80
39017;DHT22;24784;45.582;5.276;2023-02-28T17:19:11;4.20;93.20
39017;DHT22;24784;45.582;5.276;2023-02-28T17:21:37;4.30;93.00
39017;DHT22;24784;45.582;5.276;2023-02-28T17:24:04;4.10;92.70
39017;DHT22;24784;45.582;5.276;2023-02-28T17:26:29;4.00;92.90
39017;DHT22;24784;45.582;5.276;2023-02-28T17:28:56;3.80;93.10
39017;DHT22;24784;45.582;5.276;2023-02-28T17:31:23;3.90;93.30
39017;DHT22;24784;45.582;5.276;2023-02-28T17:33:49;3.90;93.40
39017;DHT22;24784;45.582;5.276;2023-02-28T17:36:23;3.90;93.20
39017;DHT22;24784;45.582;5.276;2023-02-28T17:38:50;3.90;93.20
39017;DHT22;24784;45.582;5.276;2023-02-28T17:41:15;4.00;93.50
39017;DHT22;24784;45.582;5.276;2023-02-28T17:43:41;4.00;93.40
39017;DHT22;24784;45.582;5.276;2023-02-28T17:46:20;3.90;93.30
39017;DHT22;24784;45.582;5.276;2023-02-28T17:48:47;3.80;93.50
39017;DHT22;24784;45.582;5.276;2023-02-28T17:51:14;3.70;93.40
39017;DHT22;24784;45.582;5.276;2023-02-28T17:53:40;3.80;93.50
39017;DHT22;24784;45.582;5.276;2023-02-28T17:56:12;3.80;93.60
39017;DHT22;24784;45.582;5.276;2023-02-28T17:58:38;3.70;93.40
39017;DHT22;24784;45.582;5.276;2023-02-28T18:01:04;3.70;93.70
39017;DHT22;24784;45.582;5.276;2023-02-28T18:03:30;3.70;93.60
39017;DHT22;24784;45.582;5.276;2023-02-28T18:05:57;3.60;93.70
39017;DHT22;24784;45.582;5.276;2023-02-28T18:08:23;3.60;93.70
39017;DHT22;24784;45.582;5.276;2023-02-28T18:10:49;3.70;93.80
39017;DHT22;24784;45.582;5.276;2023-02-28T18:13:15;3.70;93.40
39017;DHT22;24784;45.582;5.276;2023-02-28T18:15:41;3.70;93.50
39017;DHT22;24784;45.582;5.276;2023-02-28T18:18:06;3.50;93.70
39017;DHT22;24784;45.582;5.276;2023-02-28T18:20:33;3.50;93.90
39017;DHT22;24784;45.582;5.276;2023-02-28T18:22:59;3.40;93.90
39017;DHT22;24784;45.582;5.276;2023-02-28T18:25:25;3.50;94.10